Time;durP1;ratioP1;P1;durP2;ratioP2;P2;SDS_P1;SDS_P2;PMS_P1;PMS_P2;Temp;Humidity;BMP_temperature;BMP_pressure;BME280_temperature;BME280_humidity;BME280_pressure;Samples;Min_cycle;Max_cycle;Signal;HPM_P1;HPM_P2
2022/12/17 13:06:09;;;;;;;;;;;16.70;99.10;;;;;;5108624;28;19962;-76
2022/12/17 13:08:36;;;;;;;;;;;16.70;99.30;;;;;;5097812;28;19949;-75
2022/12/17 13:11:27;;;;;;;;;;;16.70;99.20;;;;;;5092345;28;20407;-75
2022/12/17 13:13:57;;;;;;;;;;;16.70;99.20;;;;;;5091669;28;19923;-75
2022/12/17 13:16:30;;;;;;;;;;;16.70;99.30;;;;;;5096769;28;20369;-76
2022/12/17 13:19:01;;;;;;;;;;;16.70;99.30;;;;;;5111233;28;19916;-73
2022/12/17 13:21:30;;;;;;;;;;;16.70;99.40;;;;;;5096195;28;19913;-74
2022/12/17 13:23:57;;;;;;;;;;;16.60;99.50;;;;;;5099621;28;19920;-73
2022/12/17 13:26:29;;;;;;;;;;;16.60;99.60;;;;;;5105062;28;19930;-73
2022/12/17 13:28:57;;;;;;;;;;;16.60;99.80;;;;;;5101824;28;19920;-71
2022/12/17 13:31:32;;;;;;;;;;;16.60;99.90;;;;;;5111309;28;20418;-70
2022/12/17 13:34:14;;;;;;;;;;;16.60;99.90;;;;;;5109938;28;19919;-74
2022/12/17 13:36:43;;;;;;;;;;;16.60;99.90;;;;;;5105044;28;19912;-74
2022/12/17 13:39:16;;;;;;;;;;;16.60;99.90;;;;;;5110614;28;19931;-73
2022/12/17 13:41:43;;;;;;;;;;;16.60;99.90;;;;;;5112516;27;19998;-75
2022/12/17 13:44:17;;;;;;;;;;;16.60;99.90;;;;;;5108871;28;19969;-72
2022/12/17 13:46:45;;;;;;;;;;;16.60;99.90;;;;;;5113477;28;19908;-75
2022/12/17 13:49:18;;;;;;;;;;;16.50;99.90;;;;;;5095324;28;19920;-77
2022/12/17 13:51:45;;;;;;;;;;;16.50;99.90;;;;;;5111591;28;19943;-75
2022/12/17 13:54:17;;;;;;;;;;;16.50;99.90;;;;;;5113908;28;19911;-76
2022/12/17 13:56:44;;;;;;;;;;;16.50;99.90;;;;;;5108871;28;19919;-76
2022/12/17 13:59:17;;;;;;;;;;;16.50;99.90;;;;;;5113268;27;19914;-69
2022/12/17 14:01:45;;;;;;;;;;;16.50;99.90;;;;;;5112551;28;19915;-72
2022/12/17 14:04:19;;;;;;;;;;;16.60;99.90;;;;;;5112622;28;19957;-75
2022/12/17 14:06:45;;;;;;;;;;;16.60;99.90;;;;;;5106036;28;19920;-75
2022/12/17 14:09:19;;;;;;;;;;;16.50;99.90;;;;;;5111993;28;19935;-74
2022/12/17 14:14:34;;;;;;;;;;;16.30;99.90;;;;;;5098066;28;19914;-73
2022/12/17 14:17:01;;;;;;;;;;;16.20;99.90;;;;;;5111005;27;19946;-73
2022/12/17 14:19:28;;;;;;;;;;;16.10;99.90;;;;;;5107425;27;19923;-69
2022/12/17 14:21:55;;;;;;;;;;;16.00;99.90;;;;;;5112259;27;19916;-74
2022/12/17 14:24:25;;;;;;;;;;;16.00;99.90;;;;;;5101970;27;19966;-76
2022/12/17 14:26:54;;;;;;;;;;;15.90;99.90;;;;;;5111453;28;19916;-75
2022/12/17 14:29:25;;;;;;;;;;;15.90;99.90;;;;;;5099746;28;20377;-77
2022/12/17 14:32:14;;;;;;;;;;;15.80;99.90;;;;;;5102918;28;20315;-78
2022/12/17 14:34:41;;;;;;;;;;;15.70;99.90;;;;;;5105004;28;19912;-74
2022/12/17 14:37:15;;;;;;;;;;;15.60;99.90;;;;;;5095990;27;20007;-73
2022/12/17 14:39:46;;;;;;;;;;;15.50;99.90;;;;;;5109836;28;19923;-75
2022/12/17 14:42:31;;;;;;;;;;;15.50;99.90;;;;;;5103403;28;20145;-77
2022/12/17 14:45:21;;;;;;;;;;;15.30;99.90;;;;;;5114137;28;19954;-75
2022/12/17 14:47:58;;;;;;;;;;;15.20;99.90;;;;;;5098859;28;19924;-76
2022/12/17 14:50:26;;;;;;;;;;;15.20;99.90;;;;;;5098058;28;19926;-74
2022/12/17 14:52:55;;;;;;;;;;;15.20;99.90;;;;;;5104169;28;19936;-75
2022/12/17 14:55:27;;;;;;;;;;;15.10;99.90;;;;;;5093449;28;19915;-74
2022/12/17 14:58:06;;;;;;;;;;;15.20;99.90;;;;;;5100800;28;20277;-75
2022/12/17 15:00:34;;;;;;;;;;;15.20;99.90;;;;;;5112823;28;20000;-75
2022/12/17 15:03:01;;;;;;;;;;;15.30;99.90;;;;;;5109316;28;20027;-73
2022/12/17 15:05:27;;;;;;;;;;;15.40;99.90;;;;;;5095400;28;20340;-70
2022/12/17 15:07:54;;;;;;;;;;;15.40;99.90;;;;;;5108708;27;19923;-77
2022/12/17 15:10:21;;;;;;;;;;;15.40;99.90;;;;;;5106847;28;19916;-75
2022/12/17 15:12:50;;;;;;;;;;;15.50;99.90;;;;;;5105309;28;19912;-77
2022/12/17 15:15:17;;;;;;;;;;;15.50;99.90;;;;;;5113657;28;19931;-73
2022/12/17 15:17:44;;;;;;;;;;;15.50;99.90;;;;;;5102104;28;20031;-74
2022/12/17 15:20:20;;;;;;;;;;;15.60;99.90;;;;;;5105942;28;19911;-72
2022/12/17 15:22:50;;;;;;;;;;;15.60;99.90;;;;;;5099187;28;19916;-73
2022/12/17 15:25:18;;;;;;;;;;;15.60;99.90;;;;;;5104227;28;19923;-68
2022/12/17 15:27:46;;;;;;;;;;;15.60;99.90;;;;;;5095467;28;19920;-75
2022/12/17 15:30:15;;;;;;;;;;;15.60;99.90;;;;;;5109837;28;19920;-74
2022/12/17 15:32:42;;;;;;;;;;;15.60;99.90;;;;;;5104263;28;19916;-76
2022/12/17 15:35:10;;;;;;;;;;;15.60;99.90;;;;;;5099868;28;20337;-73
2022/12/17 15:37:37;;;;;;;;;;;15.70;99.90;;;;;;5104011;28;19924;-74
2022/12/17 15:40:05;;;;;;;;;;;15.70;99.90;;;;;;5093079;28;19958;-72
2022/12/17 15:45:17;;;;;;;;;;;15.70;99.90;;;;;;5111546;28;19922;-73
2022/12/17 15:47:43;;;;;;;;;;;15.80;99.90;;;;;;5110476;28;19919;-72
2022/12/17 15:50:10;;;;;;;;;;;15.80;99.90;;;;;;5098805;28;19923;-73
2022/12/17 15:52:37;;;;;;;;;;;15.80;99.90;;;;;;5099709;28;19912;-76
2022/12/17 15:55:03;;;;;;;;;;;15.80;99.90;;;;;;5112976;28;19922;-74
2022/12/17 15:57:30;;;;;;;;;;;15.80;99.90;;;;;;5104669;27;19916;-76
2022/12/17 15:59:57;;;;;;;;;;;15.80;99.90;;;;;;5109608;28;19912;-77
2022/12/17 16:02:24;;;;;;;;;;;15.80;99.90;;;;;;5107958;28;20534;-74
2022/12/17 16:04:51;;;;;;;;;;;15.80;99.90;;;;;;5106946;28;19957;-73
2022/12/17 16:07:18;;;;;;;;;;;15.80;99.90;;;;;;5108486;28;19923;-71
2022/12/17 16:09:44;;;;;;;;;;;15.80;99.90;;;;;;5110315;28;20011;-74
2022/12/17 16:12:11;;;;;;;;;;;15.80;99.90;;;;;;5107215;28;20269;-72
2022/12/17 16:14:38;;;;;;;;;;;15.80;99.90;;;;;;5095240;28;19912;-74
2022/12/17 16:17:05;;;;;;;;;;;15.80;99.90;;;;;;5104860;28;20364;-74
2022/12/17 16:19:31;;;;;;;;;;;15.70;99.90;;;;;;5097734;28;19920;-76
2022/12/17 16:21:58;;;;;;;;;;;15.70;99.90;;;;;;5096404;27;19916;-74
2022/12/17 16:24:25;;;;;;;;;;;15.60;99.90;;;;;;5109445;28;20281;-73
2022/12/17 16:26:51;;;;;;;;;;;15.60;99.90;;;;;;5109717;28;19916;-73
2022/12/17 16:29:18;;;;;;;;;;;15.60;99.90;;;;;;5101766;28;19928;-74
2022/12/17 16:31:45;;;;;;;;;;;15.60;99.90;;;;;;5104696;28;19951;-76
2022/12/17 16:34:12;;;;;;;;;;;15.60;99.90;;;;;;5098916;28;20016;-73
2022/12/17 16:36:39;;;;;;;;;;;15.50;99.90;;;;;;5102789;28;20024;-76
2022/12/17 16:39:05;;;;;;;;;;;15.50;99.90;;;;;;5085052;28;19977;-72
2022/12/17 16:41:32;;;;;;;;;;;15.50;99.90;;;;;;5100712;28;20409;-74
2022/12/17 16:44:00;;;;;;;;;;;15.50;99.90;;;;;;5111098;28;19994;-74
2022/12/17 16:46:26;;;;;;;;;;;15.50;99.90;;;;;;5092116;28;19911;-69
2022/12/17 16:48:54;;;;;;;;;;;15.50;99.90;;;;;;5111616;27;19920;-69
2022/12/17 16:51:21;;;;;;;;;;;15.50;99.90;;;;;;5099315;27;19923;-75
2022/12/17 16:53:48;;;;;;;;;;;15.50;99.90;;;;;;5105278;28;19919;-68
2022/12/17 16:56:16;;;;;;;;;;;15.50;99.90;;;;;;5093590;28;19908;-71
2022/12/17 16:58:43;;;;;;;;;;;15.50;99.90;;;;;;5109503;28;20019;-70
2022/12/17 17:01:10;;;;;;;;;;;15.50;99.90;;;;;;5105790;28;19912;-75
2022/12/17 17:03:43;;;;;;;;;;;15.50;99.90;;;;;;5107571;28;20526;-75
2022/12/17 17:06:10;;;;;;;;;;;15.50;99.90;;;;;;5106588;28;19912;-73
2022/12/17 17:08:37;;;;;;;;;;;15.50;99.90;;;;;;5101934;28;19924;-75
2022/12/17 17:11:07;;;;;;;;;;;15.40;99.90;;;;;;5100716;28;20045;-74
2022/12/17 17:13:34;;;;;;;;;;;15.40;99.90;;;;;;5103912;28;20293;-70
2022/12/17 17:16:01;;;;;;;;;;;15.30;99.90;;;;;;5098322;28;19912;-75
2022/12/17 17:18:27;;;;;;;;;;;15.30;99.90;;;;;;5101600;28;19916;-70
2022/12/17 17:20:54;;;;;;;;;;;15.40;99.90;;;;;;5079514;28;19939;-69
2022/12/17 17:23:21;;;;;;;;;;;15.40;99.90;;;;;;5090966;28;19920;-73
2022/12/17 17:25:47;;;;;;;;;;;15.50;99.90;;;;;;5097447;28;19965;-71
2022/12/17 17:28:14;;;;;;;;;;;15.50;99.90;;;;;;5101499;28;19924;-72
2022/12/17 17:30:41;;;;;;;;;;;15.50;99.90;;;;;;5091382;28;19963;-74
2022/12/17 17:33:08;;;;;;;;;;;15.60;99.90;;;;;;5091980;28;19931;-74
2022/12/17 17:35:34;;;;;;;;;;;15.60;99.90;;;;;;5106645;28;20357;-73
2022/12/17 17:38:01;;;;;;;;;;;15.60;99.90;;;;;;5095998;28;20369;-70
2022/12/17 17:40:28;;;;;;;;;;;15.60;99.90;;;;;;5099816;28;20044;-71
2022/12/17 17:42:54;;;;;;;;;;;15.70;99.90;;;;;;5101656;28;19995;-73
2022/12/17 17:45:21;;;;;;;;;;;15.70;99.90;;;;;;5104926;28;19912;-71
2022/12/17 17:47:48;;;;;;;;;;;15.70;99.90;;;;;;5102081;28;20487;-74
2022/12/17 17:50:14;;;;;;;;;;;15.70;99.90;;;;;;5099252;28;20435;-73
2022/12/17 17:52:41;;;;;;;;;;;15.70;99.90;;;;;;5108663;28;19961;-70
2022/12/17 17:55:08;;;;;;;;;;;15.70;99.90;;;;;;5107140;28;19915;-70
2022/12/17 17:57:34;;;;;;;;;;;15.70;99.90;;;;;;5096454;28;19918;-74
2022/12/17 18:00:01;;;;;;;;;;;15.70;99.90;;;;;;5101426;28;19919;-72
2022/12/17 18:02:28;;;;;;;;;;;15.70;99.90;;;;;;5103718;28;19933;-70
2022/12/17 18:04:55;;;;;;;;;;;15.80;99.90;;;;;;5109636;28;19941;-73
2022/12/17 18:07:22;;;;;;;;;;;15.70;99.90;;;;;;5102898;28;19926;-73
2022/12/17 18:09:48;;;;;;;;;;;15.80;99.90;;;;;;5109055;28;19920;-70
2022/12/17 18:15:00;;;;;;;;;;;15.70;99.90;;;;;;5091722;28;20329;-70
2022/12/17 18:17:26;;;;;;;;;;;15.60;99.90;;;;;;5097825;28;19912;-74
2022/12/17 18:19:54;;;;;;;;;;;15.60;99.90;;;;;;5094917;28;19959;-71
2022/12/17 18:22:21;;;;;;;;;;;15.60;99.90;;;;;;5094262;27;19912;-72
2022/12/17 18:24:47;;;;;;;;;;;15.60;99.90;;;;;;5107121;28;19935;-72
2022/12/17 18:27:14;;;;;;;;;;;15.60;99.90;;;;;;5106555;28;19979;-72
2022/12/17 18:29:41;;;;;;;;;;;15.60;99.90;;;;;;5100986;28;19946;-69
2022/12/17 18:32:08;;;;;;;;;;;15.60;99.90;;;;;;5094260;28;19918;-70
2022/12/17 18:34:34;;;;;;;;;;;15.60;99.90;;;;;;5094725;28;19919;-69
2022/12/17 18:37:01;;;;;;;;;;;15.70;99.90;;;;;;5094017;28;20018;-71
2022/12/17 18:39:28;;;;;;;;;;;15.70;99.90;;;;;;5096424;28;20002;-69
2022/12/17 18:44:41;;;;;;;;;;;15.70;99.90;;;;;;5094794;28;20843;-70
2022/12/17 18:47:08;;;;;;;;;;;15.70;99.90;;;;;;5103023;28;19923;-68
2022/12/17 18:49:35;;;;;;;;;;;15.70;99.90;;;;;;5101119;28;19976;-71
2022/12/17 18:52:02;;;;;;;;;;;15.70;99.90;;;;;;5110078;28;19916;-70
2022/12/17 18:54:30;;;;;;;;;;;15.70;99.90;;;;;;5113276;28;20119;-73
2022/12/17 18:56:56;;;;;;;;;;;15.70;99.90;;;;;;5108214;28;20002;-73
2022/12/17 18:59:25;;;;;;;;;;;15.70;99.90;;;;;;5100223;28;19916;-69
2022/12/17 19:01:55;;;;;;;;;;;15.70;99.90;;;;;;5100710;28;20331;-69
2022/12/17 19:04:22;;;;;;;;;;;15.70;99.90;;;;;;5094294;28;20433;-76
2022/12/17 19:06:50;;;;;;;;;;;15.70;99.90;;;;;;5100691;28;20042;-75
2022/12/17 19:09:19;;;;;;;;;;;15.70;99.90;;;;;;5100217;28;19931;-75
2022/12/17 19:11:46;;;;;;;;;;;15.70;99.90;;;;;;5112447;28;19961;-76
2022/12/17 19:14:13;;;;;;;;;;;15.80;99.90;;;;;;5110389;28;20315;-75
2022/12/17 19:16:39;;;;;;;;;;;15.80;99.90;;;;;;5098489;28;19920;-76
2022/12/17 19:19:06;;;;;;;;;;;15.80;99.90;;;;;;5101442;28;19911;-75
2022/12/17 19:21:33;;;;;;;;;;;15.80;99.90;;;;;;5105491;28;20006;-74
2022/12/17 19:24:01;;;;;;;;;;;15.70;99.90;;;;;;5106314;28;20361;-73
2022/12/17 19:26:28;;;;;;;;;;;15.70;99.90;;;;;;5116366;27;19916;-72
2022/12/17 19:28:56;;;;;;;;;;;15.60;99.90;;;;;;5098432;28;20062;-76
2022/12/17 19:31:24;;;;;;;;;;;15.50;99.90;;;;;;5105742;28;19938;-76
2022/12/17 19:34:00;;;;;;;;;;;15.50;99.90;;;;;;5092325;28;19916;-75
2022/12/17 19:36:28;;;;;;;;;;;15.50;99.90;;;;;;5092786;28;19908;-76
2022/12/17 19:38:56;;;;;;;;;;;15.60;99.90;;;;;;5105078;28;19920;-77
2022/12/17 19:41:23;;;;;;;;;;;15.70;99.90;;;;;;5094847;28;19927;-75
2022/12/17 19:43:57;;;;;;;;;;;15.70;99.90;;;;;;5102476;28;19912;-75
2022/12/17 19:46:24;;;;;;;;;;;15.90;99.90;;;;;;5108408;28;20006;-77
2022/12/17 19:48:51;;;;;;;;;;;16.00;99.90;;;;;;5106715;28;19983;-74
2022/12/17 19:51:18;;;;;;;;;;;16.10;99.90;;;;;;5112835;28;20357;-76
2022/12/17 19:53:45;;;;;;;;;;;16.20;99.90;;;;;;5107017;28;19915;-75
2022/12/17 19:56:12;;;;;;;;;;;16.40;99.90;;;;;;5099467;28;19918;-74
2022/12/17 19:58:39;;;;;;;;;;;16.60;99.90;;;;;;5109413;28;19926;-74
2022/12/17 20:01:10;;;;;;;;;;;16.80;99.90;;;;;;5112581;28;20412;-73
2022/12/17 20:03:37;;;;;;;;;;;16.90;99.90;;;;;;5106608;28;19920;-74
2022/12/17 20:06:04;;;;;;;;;;;17.00;99.90;;;;;;5105226;28;19916;-71
2022/12/17 20:08:32;;;;;;;;;;;17.10;99.90;;;;;;5109751;28;19920;-76
2022/12/17 20:11:00;;;;;;;;;;;17.00;99.90;;;;;;5109476;28;20295;-75
2022/12/17 20:13:26;;;;;;;;;;;17.00;99.90;;;;;;5096893;27;19947;-73
2022/12/17 20:16:02;;;;;;;;;;;16.90;99.90;;;;;;5103749;28;19973;-75
2022/12/17 20:18:28;;;;;;;;;;;16.80;99.90;;;;;;5103704;28;20284;-71
2022/12/17 20:21:05;;;;;;;;;;;16.80;99.90;;;;;;5108698;28;19922;-76
2022/12/17 20:23:32;;;;;;;;;;;16.80;99.90;;;;;;5102109;28;20329;-77
2022/12/17 20:26:05;;;;;;;;;;;16.90;99.90;;;;;;5097539;28;19923;-74
2022/12/17 20:28:32;;;;;;;;;;;17.00;99.90;;;;;;5097682;27;19920;-77
2022/12/17 20:30:59;;;;;;;;;;;17.10;99.90;;;;;;5094953;28;19916;-77
2022/12/17 20:33:26;;;;;;;;;;;17.20;99.90;;;;;;5097821;28;19915;-77
2022/12/17 20:35:53;;;;;;;;;;;17.30;99.90;;;;;;5105646;28;19968;-71
2022/12/17 20:38:20;;;;;;;;;;;17.50;99.90;;;;;;5106475;28;20031;-76
2022/12/17 20:40:47;;;;;;;;;;;17.60;99.90;;;;;;5099990;28;19919;-72
2022/12/17 20:43:14;;;;;;;;;;;17.70;99.90;;;;;;5098172;27;20280;-78
2022/12/17 20:45:47;;;;;;;;;;;17.80;99.90;;;;;;5097773;28;19912;-76
2022/12/17 20:48:14;;;;;;;;;;;17.90;99.90;;;;;;5092264;28;20015;-77
2022/12/17 20:50:41;;;;;;;;;;;18.00;99.50;;;;;;5097568;28;19915;-74
2022/12/17 20:53:08;;;;;;;;;;;18.10;99.20;;;;;;5100567;28;19923;-77
2022/12/17 20:55:34;;;;;;;;;;;18.10;99.10;;;;;;5100171;28;20317;-77
2022/12/17 20:58:01;;;;;;;;;;;18.10;98.60;;;;;;5096749;28;19919;-77
2022/12/17 21:00:28;;;;;;;;;;;18.10;98.50;;;;;;5095310;28;20524;-75
2022/12/17 21:02:54;;;;;;;;;;;18.20;98.70;;;;;;5097587;28;20377;-77
2022/12/17 21:05:21;;;;;;;;;;;18.30;98.70;;;;;;5097182;28;19912;-77
2022/12/17 21:07:50;;;;;;;;;;;18.40;98.60;;;;;;5101079;28;19969;-77
2022/12/17 21:10:16;;;;;;;;;;;18.60;98.30;;;;;;5099218;28;19919;-77
2022/12/17 21:15:28;;;;;;;;;;;18.90;97.60;;;;;;5103612;28;19918;-73
2022/12/17 21:17:55;;;;;;;;;;;19.00;97.60;;;;;;5080712;28;19999;-74
2022/12/17 21:20:22;;;;;;;;;;;19.10;97.30;;;;;;5104830;28;19915;-76
2022/12/17 21:22:48;;;;;;;;;;;19.30;96.90;;;;;;5106023;28;19912;-76
2022/12/17 21:25:15;;;;;;;;;;;19.40;96.70;;;;;;5095769;28;19915;-76
2022/12/17 21:27:43;;;;;;;;;;;19.70;96.70;;;;;;5104578;28;20273;-76
2022/12/17 21:30:10;;;;;;;;;;;20.20;96.00;;;;;;5092981;28;19920;-75
2022/12/17 21:32:36;;;;;;;;;;;20.50;95.40;;;;;;5108478;28;19923;-76
2022/12/17 21:35:03;;;;;;;;;;;20.60;94.60;;;;;;5096389;28;19912;-75
2022/12/17 21:37:30;;;;;;;;;;;20.70;94.40;;;;;;5077705;28;20041;-76
2022/12/17 21:39:57;;;;;;;;;;;20.80;94.00;;;;;;5073476;28;19923;-77
2022/12/17 21:45:09;;;;;;;;;;;20.80;93.90;;;;;;5086231;28;20316;-76
2022/12/17 21:47:36;;;;;;;;;;;20.70;93.80;;;;;;5080288;28;19924;-76
2022/12/17 21:50:03;;;;;;;;;;;20.60;93.70;;;;;;5090666;28;19920;-76
2022/12/17 21:52:30;;;;;;;;;;;20.30;94.10;;;;;;5090266;28;20262;-71
2022/12/17 21:54:56;;;;;;;;;;;20.10;94.30;;;;;;5082028;28;20054;-77
2022/12/17 21:57:23;;;;;;;;;;;20.00;94.50;;;;;;5092244;28;20473;-76
2022/12/17 21:59:50;;;;;;;;;;;20.10;94.60;;;;;;5092764;28;19908;-75
2022/12/17 22:02:16;;;;;;;;;;;20.30;94.90;;;;;;5087039;28;19913;-77
2022/12/17 22:04:43;;;;;;;;;;;20.50;94.30;;;;;;5097207;28;19962;-76
2022/12/17 22:07:10;;;;;;;;;;;20.60;94.00;;;;;;5087591;28;20397;-75
2022/12/17 22:09:36;;;;;;;;;;;21.00;93.90;;;;;;5092367;28;20332;-77
2022/12/17 22:14:47;;;;;;;;;;;21.60;93.20;;;;;;5079461;28;19923;-77
2022/12/17 22:17:15;;;;;;;;;;;21.90;92.90;;;;;;5075534;28;20417;-76
2022/12/17 22:19:42;;;;;;;;;;;22.20;92.70;;;;;;5076911;28;19916;-76
2022/12/17 22:22:08;;;;;;;;;;;22.30;91.90;;;;;;5071046;28;19916;-76
2022/12/17 22:24:35;;;;;;;;;;;22.20;91.80;;;;;;5088998;28;19912;-77
2022/12/17 22:27:02;;;;;;;;;;;22.10;91.80;;;;;;5077424;28;19920;-76
2022/12/17 22:34:58;;;;;;;;;;;22.60;91.50;;;;;;5082106;28;20357;-75
2022/12/17 22:37:24;;;;;;;;;;;22.30;91.40;;;;;;5085297;28;19924;-76
2022/12/17 22:39:51;;;;;;;;;;;22.10;91.90;;;;;;5077144;28;20494;-75
2022/12/17 22:45:04;;;;;;;;;;;21.80;92.00;;;;;;5079615;28;19938;-75
2022/12/17 22:47:30;;;;;;;;;;;21.80;92.20;;;;;;5075258;28;19943;-75
2022/12/17 22:49:57;;;;;;;;;;;21.90;91.70;;;;;;5071773;28;19924;-72
2022/12/17 22:52:28;;;;;;;;;;;21.80;91.90;;;;;;5086338;28;20329;-70
2022/12/17 22:54:54;;;;;;;;;;;21.60;92.10;;;;;;5079523;28;19947;-71
2022/12/17 22:57:21;;;;;;;;;;;21.60;92.10;;;;;;5081297;28;19973;-72
2022/12/17 22:59:49;;;;;;;;;;;21.70;92.20;;;;;;5090786;28;20002;-72
2022/12/17 23:02:15;;;;;;;;;;;21.90;92.30;;;;;;5078278;28;19943;-71
2022/12/17 23:04:42;;;;;;;;;;;22.00;91.80;;;;;;5091742;28;19912;-73
2022/12/17 23:07:09;;;;;;;;;;;22.20;91.40;;;;;;5091577;28;19916;-74
2022/12/17 23:09:35;;;;;;;;;;;22.50;91.20;;;;;;5090605;28;19920;-73
2022/12/17 23:12:49;;;;;;;;;;;22.70;90.90;;;;;;5088032;28;20406;-73
2022/12/17 23:14:48;;;;;;;;;;;22.60;90.60;;;;;;5071622;28;19961;-74
2022/12/17 23:17:15;;;;;;;;;;;22.40;91.00;;;;;;5076143;28;20613;-73
2022/12/17 23:19:42;;;;;;;;;;;22.60;91.40;;;;;;5081989;28;20019;-74
2022/12/17 23:22:09;;;;;;;;;;;22.80;91.20;;;;;;5078588;28;19913;-74
2022/12/17 23:24:35;;;;;;;;;;;22.90;90.80;;;;;;5071968;28;19912;-74
2022/12/17 23:27:02;;;;;;;;;;;23.10;90.60;;;;;;5080751;28;20381;-73
2022/12/17 23:29:29;;;;;;;;;;;23.50;90.50;;;;;;5091071;28;19965;-72
2022/12/17 23:31:55;;;;;;;;;;;23.80;90.40;;;;;;5084093;28;20385;-72
2022/12/17 23:34:23;;;;;;;;;;;24.00;90.30;;;;;;5092033;28;19916;-73
2022/12/17 23:36:50;;;;;;;;;;;23.90;88.80;;;;;;5080558;28;19962;-72
2022/12/17 23:39:16;;;;;;;;;;;23.70;89.60;;;;;;5074058;28;19923;-74
2022/12/17 23:41:43;;;;;;;;;;;23.40;90.00;;;;;;5080272;28;20014;-72
2022/12/17 23:44:10;;;;;;;;;;;23.40;90.30;;;;;;5074150;28;20379;-74
2022/12/17 23:46:36;;;;;;;;;;;23.40;90.30;;;;;;5077262;28;20323;-73
2022/12/17 23:49:04;;;;;;;;;;;23.10;89.70;;;;;;5072734;28;19932;-70
2022/12/17 23:51:31;;;;;;;;;;;22.80;90.30;;;;;;5079342;28;19912;-74
2022/12/17 23:53:58;;;;;;;;;;;22.80;90.90;;;;;;5076458;28;19919;-72
2022/12/17 23:56:26;;;;;;;;;;;23.10;90.80;;;;;;5074283;28;19927;-74
2022/12/17 23:58:55;;;;;;;;;;;23.40;90.20;;;;;;5076121;28;19919;-74
